Time;durP1;ratioP1;P1;durP2;ratioP2;P2;SDS_P1;SDS_P2;PMS_P1;PMS_P2;Temp;Humidity;BMP_temperature;BMP_pressure;BME280_temperature;BME280_humidity;BME280_pressure;Samples;Min_cycle;Max_cycle;Signal;HPM_P1;HPM_P2
2024/01/22 00:02:17;;;;;;;;;;;;;;;22.05;15.20;99233.16;5104974;27;20371;-89
2024/01/22 00:04:43;;;;;;;;;;;;;;;21.95;15.45;99226.31;5110555;28;19930;-89
2024/01/22 00:07:09;;;;;;;;;;;;;;;21.90;15.74;99227.50;5114521;28;19927;-90
2024/01/22 00:09:35;;;;;;;;;;;;;;;22.12;15.13;99224.78;5113771;28;19920;-89
2024/01/22 00:12:01;;;;;;;;;;;;;;;21.84;15.10;99222.66;5108879;27;19920;-89
2024/01/22 00:14:27;;;;;;;;;;;;;;;21.49;15.33;99220.44;5114671;28;19985;-89
2024/01/22 00:16:53;;;;;;;;;;;;;;;21.70;14.81;99214.97;5114029;28;20299;-89
2024/01/22 00:19:19;;;;;;;;;;;;;;;22.08;14.43;99213.56;5113018;28;19962;-89
2024/01/22 00:21:45;;;;;;;;;;;;;;;22.29;14.45;99216.47;5112343;28;19919;-89
2024/01/22 00:24:11;;;;;;;;;;;;;;;22.19;14.31;99213.63;5107682;28;19927;-89
2024/01/22 00:26:37;;;;;;;;;;;;;;;22.17;15.01;99214.00;5112902;28;19916;-89
2024/01/22 00:29:03;;;;;;;;;;;;;;;21.99;14.78;99218.72;5113176;28;19932;-89
2024/01/22 00:31:29;;;;;;;;;;;;;;;21.86;14.57;99221.09;5113732;28;19957;-89
2024/01/22 00:33:55;;;;;;;;;;;;;;;21.58;14.60;99218.09;5112727;28;20288;-89
2024/01/22 00:36:21;;;;;;;;;;;;;;;21.54;14.61;99216.47;5114258;28;19955;-89
2024/01/22 00:38:47;;;;;;;;;;;;;;;21.64;14.68;99221.31;5114161;28;19955;-89
2024/01/22 00:41:13;;;;;;;;;;;;;;;21.81;14.39;99213.03;5113492;28;20411;-89
2024/01/22 00:43:39;;;;;;;;;;;;;;;21.73;14.84;99216.97;5113035;28;20575;-89
2024/01/22 00:46:05;;;;;;;;;;;;;;;21.87;14.47;99210.69;5115906;27;19923;-90
2024/01/22 00:48:31;;;;;;;;;;;;;;;21.34;14.78;99215.94;5117474;28;19916;-89
2024/01/22 00:50:57;;;;;;;;;;;;;;;21.19;14.47;99215.00;5116654;28;19965;-89
2024/01/22 00:53:23;;;;;;;;;;;;;;;21.44;14.27;99209.63;5117445;28;19924;-89
2024/01/22 00:55:49;;;;;;;;;;;;;;;21.44;14.26;99214.41;5097206;28;20324;-90
2024/01/22 00:58:15;;;;;;;;;;;;;;;21.49;14.16;99214.03;5116139;28;20018;-90
2024/01/22 01:00:41;;;;;;;;;;;;;;;21.26;14.41;99223.44;5115844;27;19924;-90
2024/01/22 01:03:07;;;;;;;;;;;;;;;21.34;14.34;99229.91;5119298;27;20298;-90
2024/01/22 01:05:33;;;;;;;;;;;;;;;21.55;14.08;99227.25;5115366;27;19930;-89
2024/01/22 01:07:59;;;;;;;;;;;;;;;21.70;14.12;99230.94;5108563;27;20376;-89
2024/01/22 01:10:25;;;;;;;;;;;;;;;21.84;14.09;99229.03;5117588;27;19928;-89
2024/01/22 01:12:52;;;;;;;;;;;;;;;21.80;13.86;99216.22;5124713;27;19938;-89
2024/01/22 01:15:20;;;;;;;;;;;;;;;21.67;13.93;99212.16;5109863;27;19920;-90
2024/01/22 01:17:46;;;;;;;;;;;;;;;21.29;14.47;99213.50;5106305;27;19924;-89
2024/01/22 01:20:12;;;;;;;;;;;;;;;21.42;14.18;99220.38;5116329;27;20372;-89
2024/01/22 01:22:38;;;;;;;;;;;;;;;21.21;14.55;99220.22;5113877;27;19978;-89
2024/01/22 01:25:05;;;;;;;;;;;;;;;21.20;13.87;99210.22;5115542;27;20003;-90
2024/01/22 01:27:31;;;;;;;;;;;;;;;21.58;13.58;99212.50;5125941;27;20018;-89
2024/01/22 01:29:56;;;;;;;;;;;;;;;21.85;13.27;99204.69;5120855;27;20022;-89
2024/01/22 01:32:22;;;;;;;;;;;;;;;21.76;13.71;99205.03;5104713;28;20280;-90
2024/01/22 01:34:48;;;;;;;;;;;;;;;21.31;13.94;99203.53;5110323;27;19924;-89
2024/01/22 01:37:14;;;;;;;;;;;;;;;21.44;13.53;99192.06;5121147;27;19972;-89
2024/01/22 01:39:40;;;;;;;;;;;;;;;21.57;13.84;99191.34;5110011;27;20263;-90
2024/01/22 01:42:07;;;;;;;;;;;;;;;21.30;14.21;99185.19;5094995;28;19916;-89
2024/01/22 01:44:39;;;;;;;;;;;;;;;21.30;14.08;99182.41;5105919;28;20398;-89
2024/01/22 01:47:05;;;;;;;;;;;;;;;21.10;14.00;99169.88;5114398;28;19962;-90
2024/01/22 01:49:32;;;;;;;;;;;;;;;21.39;13.64;99161.69;5115583;28;20380;-89
2024/01/22 01:51:58;;;;;;;;;;;;;;;20.96;14.04;99166.13;5116758;27;19916;-89
2024/01/22 01:54:25;;;;;;;;;;;;;;;20.56;14.22;99162.19;5115990;28;19951;-90
2024/01/22 01:56:52;;;;;;;;;;;;;;;20.76;14.25;99167.56;5115730;28;19997;-89
2024/01/22 01:59:19;;;;;;;;;;;;;;;20.88;13.70;99156.91;5116439;28;19927;-89
2024/01/22 02:01:45;;;;;;;;;;;;;;;21.09;14.22;99157.09;5116886;28;19961;-89
2024/01/22 02:04:11;;;;;;;;;;;;;;;20.81;14.51;99154.06;5116867;28;19916;-90
2024/01/22 02:06:37;;;;;;;;;;;;;;;20.71;14.01;99154.75;5115221;28;19920;-90
2024/01/22 02:09:03;;;;;;;;;;;;;;;20.90;14.12;99157.31;5118241;27;19923;-90
2024/01/22 02:11:29;;;;;;;;;;;;;;;21.19;13.73;99150.00;5114390;27;19945;-90
2024/01/22 02:13:56;;;;;;;;;;;;;;;21.43;13.64;99148.53;5115841;28;19920;-90
2024/01/22 02:16:22;;;;;;;;;;;;;;;21.62;13.44;99135.06;5115684;28;19920;-90
2024/01/22 02:18:48;;;;;;;;;;;;;;;21.71;13.68;99129.09;5120400;27;19919;-90
2024/01/22 02:21:14;;;;;;;;;;;;;;;21.68;13.68;99118.72;5117010;28;19927;-89
2024/01/22 02:23:40;;;;;;;;;;;;;;;21.16;13.88;99115.28;5115765;28;19919;-89
2024/01/22 02:26:06;;;;;;;;;;;;;;;20.64;14.84;99116.44;5117963;27;20268;-89
2024/01/22 02:28:32;;;;;;;;;;;;;;;20.80;14.42;99116.16;5109249;27;19932;-89
2024/01/22 02:30:59;;;;;;;;;;;;;;;20.97;14.11;99109.91;5116426;27;19965;-90
2024/01/22 02:33:25;;;;;;;;;;;;;;;21.16;13.49;99101.31;5124557;27;19919;-90
2024/01/22 02:35:51;;;;;;;;;;;;;;;21.37;13.43;99088.63;5117881;27;20488;-90
2024/01/22 02:38:17;;;;;;;;;;;;;;;21.63;12.98;99082.78;5105401;27;19927;-89
2024/01/22 02:40:43;;;;;;;;;;;;;;;21.93;13.15;99080.50;5115627;27;19919;-90
2024/01/22 02:43:09;;;;;;;;;;;;;;;21.77;13.44;99068.84;5124190;27;20006;-89
2024/01/22 02:45:35;;;;;;;;;;;;;;;21.74;12.98;99069.63;5093400;28;19958;-89
2024/01/22 02:48:01;;;;;;;;;;;;;;;21.67;13.36;99072.41;5112838;27;20347;-89
2024/01/22 02:50:27;;;;;;;;;;;;;;;21.56;13.89;99060.38;5114041;27;20037;-89
2024/01/22 02:52:53;;;;;;;;;;;;;;;21.42;13.61;99057.53;5123700;27;19927;-89
2024/01/22 02:55:19;;;;;;;;;;;;;;;21.27;13.29;99062.25;5115390;27;19973;-89
2024/01/22 02:57:45;;;;;;;;;;;;;;;21.28;13.37;99047.09;5095455;27;20030;-89
2024/01/22 03:00:13;;;;;;;;;;;;;;;21.18;13.41;99057.03;5110871;27;20399;-89
2024/01/22 03:02:39;;;;;;;;;;;;;;;21.15;14.35;99052.22;5108879;27;19919;-89
2024/01/22 03:05:05;;;;;;;;;;;;;;;20.86;13.68;99036.47;5109098;27;19931;-89
2024/01/22 03:07:31;;;;;;;;;;;;;;;20.70;13.14;99032.38;5105676;28;19920;-89
2024/01/22 03:09:57;;;;;;;;;;;;;;;21.02;13.08;99041.75;5113420;27;20015;-89
2024/01/22 03:12:23;;;;;;;;;;;;;;;20.99;13.39;99029.38;5115411;27;20988;-89
2024/01/22 03:14:49;;;;;;;;;;;;;;;21.13;13.05;99023.06;5117141;27;19927;-89
2024/01/22 03:17:15;;;;;;;;;;;;;;;21.21;13.26;99017.13;5116951;27;19920;-89
2024/01/22 03:19:41;;;;;;;;;;;;;;;21.15;13.38;99024.28;5118601;27;20427;-89
2024/01/22 03:22:08;;;;;;;;;;;;;;;21.26;13.14;99030.72;5117825;27;19984;-89
2024/01/22 03:24:35;;;;;;;;;;;;;;;21.18;13.20;99034.69;5110610;28;19924;-89
2024/01/22 03:27:02;;;;;;;;;;;;;;;21.05;13.04;99039.00;5113584;28;19920;-89
2024/01/22 03:29:28;;;;;;;;;;;;;;;21.28;12.90;99039.50;5094668;28;20387;-89
2024/01/22 03:31:54;;;;;;;;;;;;;;;21.45;12.68;99031.63;5113061;28;19924;-89
2024/01/22 03:34:20;;;;;;;;;;;;;;;21.66;12.98;99026.06;5113993;27;19923;-89
2024/01/22 03:36:46;;;;;;;;;;;;;;;21.64;12.83;99031.25;5113937;27;19919;-89
2024/01/22 03:39:12;;;;;;;;;;;;;;;21.47;12.98;99030.00;5108598;28;19916;-89
2024/01/22 03:41:38;;;;;;;;;;;;;;;20.87;13.44;99031.66;5102282;28;19924;-89
2024/01/22 03:44:05;;;;;;;;;;;;;;;20.82;13.26;99030.03;5087011;28;20353;-89
2024/01/22 03:46:31;;;;;;;;;;;;;;;21.19;13.18;99035.50;5110477;27;19919;-89
2024/01/22 03:48:57;;;;;;;;;;;;;;;21.49;13.36;99035.22;5111639;27;19989;-89
2024/01/22 03:51:23;;;;;;;;;;;;;;;21.27;13.62;99034.31;5105545;27;19924;-89
2024/01/22 03:53:49;;;;;;;;;;;;;;;20.87;13.81;99026.09;5113613;27;20414;-89
2024/01/22 03:56:18;;;;;;;;;;;;;;;20.73;13.67;99032.38;5103496;28;19920;-89
2024/01/22 03:58:44;;;;;;;;;;;;;;;20.64;13.82;99032.72;5115463;27;19927;-89
2024/01/22 04:01:17;;;;;;;;;;;;;;;20.48;14.37;99034.19;5103336;28;19935;-89
2024/01/22 04:03:43;;;;;;;;;;;;;;;20.35;14.72;99025.31;5100015;27;20022;-89
2024/01/22 04:06:09;;;;;;;;;;;;;;;20.59;14.06;99021.94;5112645;28;19951;-89
2024/01/22 04:08:35;;;;;;;;;;;;;;;20.59;14.08;99021.13;5110733;27;19962;-89
2024/01/22 04:11:01;;;;;;;;;;;;;;;20.47;13.79;99019.44;5112380;28;19928;-89
2024/01/22 04:13:27;;;;;;;;;;;;;;;20.56;14.01;99011.53;5102161;28;19970;-90
2024/01/22 04:15:54;;;;;;;;;;;;;;;20.85;13.85;99006.13;5113687;28;19963;-89
2024/01/22 04:18:20;;;;;;;;;;;;;;;20.85;14.23;99006.94;5095599;28;20400;-89
2024/01/22 04:20:46;;;;;;;;;;;;;;;20.46;14.10;99003.09;5099394;27;19927;-90
2024/01/22 04:23:12;;;;;;;;;;;;;;;20.54;13.52;99007.53;5111745;27;20372;-89
2024/01/22 04:25:38;;;;;;;;;;;;;;;20.71;13.19;99014.44;5109717;28;19927;-89
2024/01/22 04:28:04;;;;;;;;;;;;;;;20.79;13.13;99010.50;5114062;27;19923;-89
2024/01/22 04:30:30;;;;;;;;;;;;;;;21.02;13.27;99002.66;5112277;28;19947;-89
2024/01/22 04:32:56;;;;;;;;;;;;;;;20.76;13.05;99000.09;5114129;28;19916;-89
2024/01/22 04:35:22;;;;;;;;;;;;;;;20.88;12.87;98995.00;5113829;28;20014;-89
2024/01/22 04:37:48;;;;;;;;;;;;;;;21.03;13.13;98993.88;5113704;28;19915;-89
2024/01/22 04:40:14;;;;;;;;;;;;;;;20.82;13.23;98984.63;5112820;28;19930;-90
2024/01/22 04:42:41;;;;;;;;;;;;;;;20.67;13.19;98990.09;5108659;28;19924;-89
2024/01/22 04:45:07;;;;;;;;;;;;;;;20.70;13.04;98988.50;5109870;28;19919;-90
2024/01/22 04:47:33;;;;;;;;;;;;;;;20.39;12.72;98989.09;5094796;28;19920;-90
2024/01/22 04:49:59;;;;;;;;;;;;;;;20.59;12.95;98988.44;5096436;28;19916;-90
2024/01/22 04:52:25;;;;;;;;;;;;;;;20.66;12.91;98982.91;5115098;28;19939;-89
2024/01/22 04:54:51;;;;;;;;;;;;;;;20.38;13.03;98984.69;5114175;28;20002;-90
2024/01/22 04:57:17;;;;;;;;;;;;;;;20.52;12.99;98979.22;5110636;28;19920;-90
2024/01/22 04:59:43;;;;;;;;;;;;;;;20.79;12.97;98968.63;5124826;28;19931;-90
2024/01/22 05:02:09;;;;;;;;;;;;;;;21.17;12.73;98970.81;5110871;28;19946;-89
2024/01/22 05:04:35;;;;;;;;;;;;;;;21.37;12.69;98960.13;5114485;28;19916;-90
2024/01/22 05:07:02;;;;;;;;;;;;;;;21.04;12.99;98956.44;5102444;28;19920;-90
2024/01/22 05:09:28;;;;;;;;;;;;;;;20.99;13.15;98956.78;5114827;28;19924;-90
2024/01/22 05:11:54;;;;;;;;;;;;;;;20.63;13.72;98955.00;5114495;28;20012;-90
2024/01/22 05:14:20;;;;;;;;;;;;;;;20.46;13.10;98952.91;5113269;28;20418;-89
2024/01/22 05:16:46;;;;;;;;;;;;;;;20.72;12.74;98949.88;5109585;28;19920;-90
2024/01/22 05:19:12;;;;;;;;;;;;;;;21.18;12.63;98950.09;5107486;28;19959;-89
2024/01/22 05:21:38;;;;;;;;;;;;;;;21.15;12.36;98956.47;5108581;28;19923;-89
2024/01/22 05:24:04;;;;;;;;;;;;;;;21.13;12.48;98959.66;5109153;28;20405;-90
2024/01/22 05:26:30;;;;;;;;;;;;;;;21.08;12.55;98962.81;5110983;28;19916;-90
2024/01/22 05:28:56;;;;;;;;;;;;;;;21.37;12.36;98955.34;5112871;28;19931;-89
2024/01/22 05:31:22;;;;;;;;;;;;;;;21.55;12.52;98952.59;5114850;28;19911;-89
2024/01/22 05:33:48;;;;;;;;;;;;;;;21.52;12.59;98953.41;5110042;27;19927;-90
2024/01/22 05:36:14;;;;;;;;;;;;;;;21.37;12.53;98949.75;5112854;28;19920;-90
2024/01/22 05:38:43;;;;;;;;;;;;;;;21.47;12.45;98948.97;5115015;28;20264;-90
2024/01/22 05:41:09;;;;;;;;;;;;;;;21.64;12.39;98936.25;5115201;28;19989;-90
2024/01/22 05:43:35;;;;;;;;;;;;;;;21.64;12.95;98934.25;5115770;28;19916;-89
2024/01/22 05:46:01;;;;;;;;;;;;;;;21.39;12.39;98943.78;5115163;28;19920;-90
2024/01/22 05:48:27;;;;;;;;;;;;;;;21.31;12.31;98937.38;5108321;27;20371;-90
2024/01/22 05:50:53;;;;;;;;;;;;;;;21.00;12.23;98938.84;5112851;27;19942;-90
2024/01/22 05:53:19;;;;;;;;;;;;;;;21.16;12.23;98936.53;5116423;27;20427;-90
2024/01/22 05:55:45;;;;;;;;;;;;;;;21.52;11.82;98943.00;5113321;28;19998;-90
2024/01/22 05:58:11;;;;;;;;;;;;;;;21.73;12.26;98933.84;5119200;28;19959;-90
2024/01/22 06:00:39;;;;;;;;;;;;;;;21.93;12.34;98930.31;5117558;28;19930;-90
2024/01/22 06:03:05;;;;;;;;;;;;;;;22.01;12.24;98928.31;5116439;27;19928;-90
2024/01/22 06:05:31;;;;;;;;;;;;;;;21.61;12.48;98923.06;5098905;28;19920;-89
2024/01/22 06:07:58;;;;;;;;;;;;;;;21.49;12.28;98923.44;5126455;27;19927;-90
2024/01/22 06:10:24;;;;;;;;;;;;;;;21.50;12.28;98923.03;5114903;27;19930;-89
2024/01/22 06:12:52;;;;;;;;;;;;;;;21.40;12.84;98926.59;5108193;28;19920;-89
2024/01/22 06:15:18;;;;;;;;;;;;;;;21.43;12.67;98922.22;5105221;28;19920;-87
2024/01/22 06:17:44;;;;;;;;;;;;;;;21.58;12.19;98918.28;5114423;28;19924;-89
2024/01/22 06:20:11;;;;;;;;;;;;;;;21.76;11.90;98914.31;5116253;28;20398;-88
2024/01/22 06:22:37;;;;;;;;;;;;;;;21.69;12.15;98913.50;5115695;28;19920;-88
2024/01/22 06:25:04;;;;;;;;;;;;;;;21.44;13.03;98912.66;5107350;27;19966;-89
2024/01/22 06:27:30;;;;;;;;;;;;;;;21.38;12.14;98911.47;5113797;27;20298;-86
2024/01/22 06:29:59;;;;;;;;;;;;;;;21.42;12.19;98901.88;5090053;28;20294;-87
2024/01/22 06:32:26;;;;;;;;;;;;;;;21.48;12.17;98903.09;5114763;28;19927;-88
2024/01/22 06:34:52;;;;;;;;;;;;;;;21.68;11.76;98897.94;5113301;28;20010;-88
2024/01/22 06:37:18;;;;;;;;;;;;;;;21.95;12.02;98890.78;5103657;27;19927;-88
2024/01/22 06:39:44;;;;;;;;;;;;;;;21.53;12.78;98887.94;5114365;28;19924;-88
2024/01/22 06:42:10;;;;;;;;;;;;;;;21.56;12.58;98879.56;5114039;27;19950;-87
2024/01/22 06:44:36;;;;;;;;;;;;;;;21.48;12.75;98875.16;5091507;28;19919;-86
2024/01/22 06:47:02;;;;;;;;;;;;;;;21.28;11.84;98874.72;5112376;28;20447;-84
2024/01/22 06:49:28;;;;;;;;;;;;;;;21.40;11.84;98867.16;5113707;28;19920;-86
2024/01/22 06:51:54;;;;;;;;;;;;;;;21.59;11.60;98858.38;5105261;27;20006;-84
2024/01/22 06:54:20;;;;;;;;;;;;;;;21.34;12.40;98859.16;5110032;28;19995;-86
2024/01/22 06:56:46;;;;;;;;;;;;;;;21.47;12.12;98853.22;5106692;27;20395;-87
2024/01/22 06:59:12;;;;;;;;;;;;;;;21.55;11.55;98846.41;5113166;27;19985;-87
2024/01/22 07:01:38;;;;;;;;;;;;;;;21.47;11.98;98851.19;5112521;28;19970;-87
2024/01/22 07:04:04;;;;;;;;;;;;;;;21.13;12.10;98844.38;5114838;28;20385;-87
2024/01/22 07:06:30;;;;;;;;;;;;;;;21.44;11.76;98835.25;5093878;28;19916;-87
2024/01/22 07:08:56;;;;;;;;;;;;;;;21.65;11.85;98828.84;5095157;28;19916;-87
2024/01/22 07:11:22;;;;;;;;;;;;;;;21.84;11.43;98823.66;5106456;28;19923;-88
2024/01/22 07:13:48;;;;;;;;;;;;;;;22.06;11.63;98824.44;5114953;28;19920;-87
2024/01/22 07:16:14;;;;;;;;;;;;;;;22.28;11.45;98819.59;5096940;27;19923;-88
2024/01/22 07:18:40;;;;;;;;;;;;;;;22.05;11.78;98824.84;5096746;28;19916;-88
2024/01/22 07:21:07;;;;;;;;;;;;;;;22.27;11.37;98818.00;5114811;28;19916;-88
2024/01/22 07:23:33;;;;;;;;;;;;;;;22.44;11.26;98817.94;5112896;28;20355;-88
2024/01/22 07:25:59;;;;;;;;;;;;;;;22.59;11.30;98824.28;5115161;28;19959;-88
2024/01/22 07:28:25;;;;;;;;;;;;;;;22.60;11.41;98807.13;5114775;28;19920;-88
2024/01/22 07:30:51;;;;;;;;;;;;;;;22.40;11.84;98805.19;5110841;27;19977;-88
2024/01/22 07:33:17;;;;;;;;;;;;;;;22.51;11.06;98801.13;5109114;27;19989;-88
2024/01/22 07:35:43;;;;;;;;;;;;;;;22.79;11.14;98799.44;5111550;28;19942;-88
2024/01/22 07:38:09;;;;;;;;;;;;;;;22.87;11.23;98803.78;5110526;28;19919;-88
2024/01/22 07:40:35;;;;;;;;;;;;;;;22.89;11.82;98790.19;5110009;28;20292;-89
2024/01/22 07:43:01;;;;;;;;;;;;;;;22.63;10.92;98791.50;5114227;28;20388;-88
2024/01/22 07:45:27;;;;;;;;;;;;;;;22.84;11.22;98782.19;5113785;28;19919;-88
2024/01/22 07:47:53;;;;;;;;;;;;;;;23.21;10.78;98780.34;5114424;28;19975;-88
2024/01/22 07:50:20;;;;;;;;;;;;;;;23.27;10.88;98772.28;5123801;27;20014;-88
2024/01/22 07:52:46;;;;;;;;;;;;;;;23.33;9.97;98767.84;5114415;28;19926;-88
2024/01/22 07:55:13;;;;;;;;;;;;;;;23.68;10.62;98759.19;5111503;28;20439;-88
2024/01/22 07:57:39;;;;;;;;;;;;;;;23.67;10.04;98751.97;5119326;27;19920;-88
2024/01/22 08:00:11;;;;;;;;;;;;;;;23.38;10.56;98753.44;5113653;28;19924;-88
2024/01/22 08:02:40;;;;;;;;;;;;;;;23.74;10.13;98739.88;5114254;28;19916;-88
2024/01/22 08:05:06;;;;;;;;;;;;;;;23.60;10.48;98735.22;5113948;28;19922;-88
2024/01/22 08:07:35;;;;;;;;;;;;;;;23.74;9.89;98731.47;5114043;28;20014;-88
2024/01/22 08:10:01;;;;;;;;;;;;;;;24.12;10.29;98721.06;5113260;28;19954;-88
2024/01/22 08:12:27;;;;;;;;;;;;;;;23.92;10.30;98723.69;5114110;28;20390;-88
2024/01/22 08:14:53;;;;;;;;;;;;;;;24.55;10.68;98714.47;5095994;28;19988;-88
2024/01/22 08:17:19;;;;;;;;;;;;;;;24.62;9.83;98705.94;5112901;28;19924;-88
2024/01/22 08:19:45;;;;;;;;;;;;;;;23.81;10.11;98700.53;5113695;28;19916;-88
2024/01/22 08:22:11;;;;;;;;;;;;;;;23.93;10.43;98700.00;5114496;28;19916;-88
2024/01/22 08:24:37;;;;;;;;;;;;;;;23.45;10.30;98699.31;5114169;28;19969;-88
2024/01/22 08:27:03;;;;;;;;;;;;;;;23.85;10.31;98695.72;5094831;28;19920;-88
2024/01/22 08:29:29;;;;;;;;;;;;;;;24.56;10.07;98690.81;5110076;28;20014;-88
2024/01/22 08:31:55;;;;;;;;;;;;;;;24.93;10.01;98691.88;5093298;28;20333;-87
2024/01/22 08:34:22;;;;;;;;;;;;;;;25.29;10.20;98684.47;5092788;28;19916;-88
2024/01/22 08:36:48;;;;;;;;;;;;;;;24.68;9.83;98684.63;5093199;28;20284;-88
2024/01/22 08:39:14;;;;;;;;;;;;;;;25.21;10.03;98675.38;5105799;28;20012;-87
2024/01/22 08:41:40;;;;;;;;;;;;;;;25.07;10.21;98677.59;5114467;28;19919;-87
2024/01/22 08:44:06;;;;;;;;;;;;;;;25.20;9.82;98676.59;5113662;28;19915;-88
2024/01/22 08:46:32;;;;;;;;;;;;;;;25.50;9.61;98664.44;5113743;28;20275;-88
2024/01/22 08:48:58;;;;;;;;;;;;;;;25.79;9.85;98654.22;5112258;28;19937;-88
2024/01/22 08:51:24;;;;;;;;;;;;;;;25.87;10.61;98658.50;5105395;28;20042;-88
2024/01/22 08:53:50;;;;;;;;;;;;;;;25.66;9.70;98666.56;5093183;28;20014;-88
2024/01/22 08:56:16;;;;;;;;;;;;;;;25.85;9.66;98652.53;5113322;28;19959;-88
2024/01/22 08:58:42;;;;;;;;;;;;;;;25.40;9.51;98642.91;5108770;28;19976;-89
2024/01/22 09:01:08;;;;;;;;;;;;;;;25.40;9.89;98643.72;5118390;28;20329;-89
2024/01/22 09:03:35;;;;;;;;;;;;;;;25.52;9.84;98635.88;5112781;28;19924;-89
2024/01/22 09:06:03;;;;;;;;;;;;;;;25.64;9.66;98629.63;5112512;28;19919;-89
2024/01/22 09:08:29;;;;;;;;;;;;;;;26.03;9.63;98624.81;5117085;28;19969;-88
2024/01/22 09:10:55;;;;;;;;;;;;;;;26.03;9.32;98616.34;5082722;28;20003;-89
2024/01/22 09:13:21;;;;;;;;;;;;;;;26.35;9.07;98612.09;5117321;27;19982;-89
2024/01/22 09:15:48;;;;;;;;;;;;;;;25.48;9.13;98613.47;5117298;27;19916;-89
2024/01/22 09:18:14;;;;;;;;;;;;;;;26.23;9.93;98605.13;5117558;28;19916;-89
2024/01/22 09:20:41;;;;;;;;;;;;;;;26.23;9.39;98605.13;5117515;28;20007;-89
2024/01/22 09:23:07;;;;;;;;;;;;;;;26.42;9.11;98598.63;5116332;28;19923;-89
2024/01/22 09:25:33;;;;;;;;;;;;;;;26.27;9.25;98588.13;5108375;28;19927;-88
2024/01/22 09:27:59;;;;;;;;;;;;;;;25.90;9.53;98589.31;5115870;28;20275;-89
2024/01/22 09:30:25;;;;;;;;;;;;;;;25.37;9.38;98581.91;5102990;27;20026;-87
2024/01/22 09:32:54;;;;;;;;;;;;;;;26.00;9.35;98585.47;5117343;27;19923;-88
2024/01/22 09:35:21;;;;;;;;;;;;;;;25.85;9.13;98582.19;5116218;28;19915;-88
2024/01/22 09:37:47;;;;;;;;;;;;;;;25.79;9.99;98580.31;5116969;28;19920;-88
2024/01/22 09:40:14;;;;;;;;;;;;;;;26.04;9.67;98572.13;5117409;28;19916;-88
2024/01/22 09:42:41;;;;;;;;;;;;;;;25.47;11.55;98575.31;5117091;28;19916;-88
2024/01/22 09:45:08;;;;;;;;;;;;;;;25.48;9.43;98562.88;5119790;28;19971;-88
2024/01/22 09:47:37;;;;;;;;;;;;;;;25.95;9.94;98550.19;5125042;27;19931;-87
2024/01/22 09:50:04;;;;;;;;;;;;;;;25.70;9.50;98549.94;5130181;27;19958;-88
2024/01/22 09:52:32;;;;;;;;;;;;;;;25.76;9.52;98545.41;5118821;28;19969;-87
2024/01/22 09:54:58;;;;;;;;;;;;;;;26.08;9.42;98537.06;5119193;28;20028;-88
2024/01/22 09:57:26;;;;;;;;;;;;;;;25.91;10.34;98529.78;5124824;27;19927;-88
2024/01/22 09:59:53;;;;;;;;;;;;;;;25.85;9.47;98511.84;5139054;27;19919;-89
2024/01/22 10:02:19;;;;;;;;;;;;;;;26.45;8.87;98516.09;5139651;27;20273;-88
2024/01/22 10:04:45;;;;;;;;;;;;;;;26.43;9.06;98524.19;5130372;27;19954;-89
2024/01/22 10:07:13;;;;;;;;;;;;;;;27.02;8.96;98514.66;5117827;27;19920;-89
2024/01/22 10:09:39;;;;;;;;;;;;;;;26.28;9.65;98510.91;5117151;28;19916;-89
2024/01/22 10:12:06;;;;;;;;;;;;;;;26.35;9.43;98511.50;5118314;28;19915;-89
2024/01/22 10:14:35;;;;;;;;;;;;;;;26.83;9.47;98515.56;5117209;28;19959;-89
2024/01/22 10:17:14;;;;;;;;;;;;;;;26.78;9.50;98511.25;5117164;28;19924;-89
2024/01/22 10:19:40;;;;;;;;;;;;;;;26.28;9.96;98494.78;5116663;28;19942;-89
2024/01/22 10:22:07;;;;;;;;;;;;;;;26.84;9.35;98506.66;5130420;27;19915;-89
2024/01/22 10:24:33;;;;;;;;;;;;;;;26.45;9.05;98496.38;5128664;27;19923;-89
2024/01/22 10:27:11;;;;;;;;;;;;;;;26.61;9.01;98496.38;5114815;28;19925;-89
2024/01/22 10:29:38;;;;;;;;;;;;;;;26.81;9.69;98495.50;5114734;28;19958;-89
2024/01/22 10:32:04;;;;;;;;;;;;;;;26.69;9.93;98496.97;5117539;28;20416;-90
2024/01/22 10:34:40;;;;;;;;;;;;;;;27.03;9.29;98496.50;5116857;28;19967;-89
2024/01/22 10:37:07;;;;;;;;;;;;;;;26.98;9.23;98497.06;5115807;28;20379;-89
2024/01/22 10:39:34;;;;;;;;;;;;;;;26.59;9.32;98498.84;5118529;27;19927;-89
2024/01/22 10:42:07;;;;;;;;;;;;;;;27.23;8.71;98499.97;5116025;28;20375;-89
2024/01/22 10:44:36;;;;;;;;;;;;;;;27.32;9.17;98495.28;5115900;28;19911;-89
2024/01/22 10:47:03;;;;;;;;;;;;;;;27.33;8.53;98505.31;5115887;28;19916;-89
2024/01/22 10:49:30;;;;;;;;;;;;;;;27.72;9.00;98506.22;5115119;28;19926;-89
2024/01/22 10:51:57;;;;;;;;;;;;;;;28.04;9.28;98511.72;5115701;28;19957;-89
2024/01/22 10:54:24;;;;;;;;;;;;;;;27.98;8.88;98500.16;5096323;28;19966;-89
2024/01/22 10:56:51;;;;;;;;;;;;;;;27.86;8.65;98500.97;5113023;27;19965;-89
2024/01/22 10:59:19;;;;;;;;;;;;;;;28.04;8.96;98506.06;5114956;28;20375;-88
2024/01/22 11:01:46;;;;;;;;;;;;;;;28.35;9.27;98504.28;5113715;28;19923;-88
2024/01/22 11:04:12;;;;;;;;;;;;;;;28.37;8.81;98500.97;5115439;28;19916;-88
2024/01/22 11:06:41;;;;;;;;;;;;;;;28.36;8.32;98502.22;5115126;28;19916;-89
2024/01/22 11:09:09;;;;;;;;;;;;;;;28.28;8.56;98500.88;5115074;28;20283;-88
2024/01/22 11:11:38;;;;;;;;;;;;;;;28.03;8.69;98499.63;5113291;28;20592;-88
2024/01/22 11:14:05;;;;;;;;;;;;;;;27.45;9.05;98495.31;5124483;27;20391;-88
2024/01/22 11:16:32;;;;;;;;;;;;;;;27.36;8.72;98497.97;5117113;27;19920;-88
2024/01/22 11:18:59;;;;;;;;;;;;;;;27.68;9.50;98491.44;5094474;28;20386;-88
2024/01/22 11:21:31;;;;;;;;;;;;;;;28.49;8.64;98486.06;5094640;28;19920;-89
2024/01/22 11:24:19;;;;;;;;;;;;;;;28.67;9.05;98486.28;5094355;28;19927;-89
2024/01/22 11:27:01;;;;;;;;;;;;;;;29.18;8.81;98482.06;5078080;28;19924;-89
2024/01/22 11:29:28;;;;;;;;;;;;;;;29.18;8.84;98482.06;5079360;28;20281;-89
2024/01/22 11:31:54;;;;;;;;;;;;;;;29.27;8.85;98479.28;5092434;28;20472;-89
2024/01/22 11:34:39;;;;;;;;;;;;;;;29.36;8.88;98479.34;5094516;28;19924;-89
2024/01/22 11:37:05;;;;;;;;;;;;;;;29.62;8.62;98474.34;5105878;28;19916;-89
2024/01/22 11:39:35;;;;;;;;;;;;;;;29.61;8.42;98466.31;5093831;28;20497;-89
2024/01/22 11:42:16;;;;;;;;;;;;;;;29.59;8.00;98471.66;5094100;28;20368;-89
2024/01/22 11:44:46;;;;;;;;;;;;;;;29.58;9.47;98470.06;5093533;28;19916;-89
2024/01/22 11:47:12;;;;;;;;;;;;;;;29.56;8.93;98472.56;5094205;28;19916;-89
2024/01/22 11:49:38;;;;;;;;;;;;;;;29.58;7.67;98453.88;5094530;28;19958;-89
2024/01/22 11:52:10;;;;;;;;;;;;;;;29.57;9.06;98462.84;5114661;28;19920;-89
2024/01/22 11:54:37;;;;;;;;;;;;;;;29.70;8.23;98450.19;5103673;28;19927;-89
2024/01/22 11:57:03;;;;;;;;;;;;;;;29.49;9.72;98462.31;5121675;28;19927;-89
2024/01/22 11:59:29;;;;;;;;;;;;;;;29.63;9.05;98444.00;5100867;28;19923;-90
2024/01/22 12:02:06;;;;;;;;;;;;;;;30.03;8.23;98454.16;5095849;28;20275;-90
2024/01/22 12:04:33;;;;;;;;;;;;;;;29.87;8.36;98459.25;5101342;28;19919;-90
2024/01/22 12:06:59;;;;;;;;;;;;;;;29.85;8.84;98451.22;5101611;28;19963;-90
2024/01/22 12:09:25;;;;;;;;;;;;;;;29.56;7.33;98452.75;5095847;28;19924;-89
2024/01/22 12:11:51;;;;;;;;;;;;;;;29.53;7.81;98448.81;5096981;28;19939;-90
2024/01/22 12:14:17;;;;;;;;;;;;;;;29.14;8.63;98450.25;5099246;28;19916;-90
2024/01/22 12:16:44;;;;;;;;;;;;;;;29.56;7.53;98445.06;5109879;28;19920;-90
2024/01/22 12:19:10;;;;;;;;;;;;;;;29.68;8.86;98449.06;5121974;28;19961;-90
2024/01/22 12:21:40;;;;;;;;;;;;;;;29.34;8.93;98441.47;5111176;28;19949;-90
2024/01/22 12:24:14;;;;;;;;;;;;;;;28.82;9.01;98442.16;5124197;28;19915;-90
2024/01/22 12:26:40;;;;;;;;;;;;;;;29.09;8.52;98436.72;5131084;27;19919;-89
2024/01/22 12:29:22;;;;;;;;;;;;;;;29.05;8.19;98443.75;5126873;28;19924;-90
2024/01/22 12:31:48;;;;;;;;;;;;;;;29.15;8.30;98443.34;5127052;28;19926;-90
2024/01/22 12:34:14;;;;;;;;;;;;;;;28.92;8.45;98440.16;5129182;28;19915;-90
2024/01/22 12:36:40;;;;;;;;;;;;;;;28.60;7.25;98432.81;5131753;28;19922;-91
2024/01/22 12:39:07;;;;;;;;;;;;;;;27.99;8.60;98442.50;5122778;28;19922;-91
2024/01/22 12:41:33;;;;;;;;;;;;;;;28.57;7.90;98433.69;5119868;28;19916;-91
2024/01/22 12:43:59;;;;;;;;;;;;;;;28.41;8.79;98434.66;5120200;28;19923;-88
2024/01/22 12:46:25;;;;;;;;;;;;;;;28.41;8.26;98431.81;5118862;28;19915;-88
2024/01/22 12:48:55;;;;;;;;;;;;;;;28.88;8.14;98439.50;5127522;28;19916;-89